Terminal Aerodrome Forecast
Issued by NWS

Home | Current Version | Previous Version | Text Only | Print | Product List | Glossary On
Versions: 1 2 3 4 5 6 7 8 9 10 11 12 13 14 15 16 17 18 19 20
000
FTUS43 KGRB 272300
TAFAUW
TAF
KAUW 272335Z 2800/2824 27006KT P6SM SKC
     FM280200 VRB03KT P6SM BKN250
     FM280600 21003KT P6SM BKN080 BKN120
     FM281100 18006KT 5SM -SN BR BKN030 OVC070
     FM281400 15006KT 2SM -SN BR OVC015=

USA.gov is the U.S. government's official web portal to all federal, state and local government web resources and services.